Latest Coastal Weather Observations for Edithburgh

IDS60701

Issued at 8:15 pm CST Wednesday 20 August 2014 (issued every 10 minutes, with the page automatically refreshed every 10 minutes)

About coastal observations | Map of coastal stations | Coastal observations for SA | Marine services | Other Formats
Station Details ID: 022046 Name: EDITHBURGH Lat: -35.11 Lon: 137.74 Height: 6.0 m
Data from the previous 72 hours. | See also: Recent months at Edithburgh
Date/Time
CST
Temp

°C
Wind Pressure Rain
since 9am
mm
Weather Cloud Vis
km
Sea
Height
m
Swell
Dir
 
Speed
knots
Gust
knots
hPa Trend Height
m
Period
s
Dir
20/08:00pm 11.1 ESE 11 15 1026.9 - 0.0 - - - - - - -
20/07:30pm 11.2 ESE 9 13 1026.8 - 0.0 - - - - - - -
20/07:00pm 11.2 SE 10 13 1026.8 - 0.0 - - - - - - -
20/06:30pm 11.3 SE 10 14 1026.7 - 0.0 - - - - - - -
20/06:00pm 11.3 ESE 9 12 1026.5 - 0.0 - - - - - - -
20/05:30pm 11.5 ESE 8 10 1026.4 - 0.0 - - - - - - -
20/05:00pm 11.9 ESE 8 10 1026.3 - 0.0 - - - - - - -
20/04:30pm 12.3 SE 7 9 1026.3 - 0.0 - - - - - - -
20/04:00pm 12.6 SE 6 8 1026.4 - 0.0 - - - - - - -
20/03:30pm 12.8 SE 7 9 1026.5 - 0.0 - - - - - - -
20/03:00pm 12.9 ESE 7 10 1026.6 - 0.0 - - - - - - -
20/02:30pm 13.0 ESE 7 10 1026.6 - 0.0 - - - - - - -
20/02:00pm 12.7 ESE 7 9 1026.7 - 0.0 - - - - - - -
20/01:30pm 12.5 ESE 9 11 1026.7 - 0.0 - - - - - - -
20/01:00pm 13.0 E 7 11 1027.0 - 0.0 - - - - - - -
20/12:30pm 13.2 E 8 13 1027.5 - 0.0 - - - - - - -
20/12:00pm 12.4 E 8 10 1027.8 - 0.0 - - - - - - -
20/11:30am 12.8 E 8 11 1028.1 - 0.0 - - - - - - -
20/11:00am 12.8 E 8 11 1028.2 - 0.0 - - - - - - -
20/10:30am 12.4 E 9 11 1028.3 - 0.0 - - - - - - -
20/10:00am 12.9 E 8 11 1028.3 - 0.0 - - - - - - -
20/09:30am 13.2 ENE 8 11 1028.3 - 0.0 - - - - - - -
20/09:00am 12.0 ENE 9 12 1028.2 - 0.0 - - - - - - -
20/08:30am 11.6 E 9 12 1027.9 - 0.0 - - - - - - -
20/08:00am 11.2 E 10 13 1027.5 - 0.0 - - - - - - -
20/07:30am 11.0 E 10 14 1027.2 - 0.0 - - - - - - -
20/07:00am 10.9 E 11 14 1027.1 - 0.0 - - - - - - -
20/06:30am 10.9 E 11 14 1026.7 - 0.0 - - - - - - -
20/06:00am 11.4 E 9 11 1026.5 - 0.0 - - - - - - -
20/05:30am 11.3 E 6 9 1026.4 - 0.0 - - - - - - -
20/05:00am 10.9 E 4 6 1026.3 - 0.0 - - - - - - -
20/04:30am 11.1 ESE 6 7 1026.2 - 0.0 - - - - - - -
20/04:00am 11.1 ESE 5 7 1026.1 - 0.0 - - - - - - -
20/03:30am 11.1 ESE 6 7 1025.9 - 0.0 - - - - - - -
20/03:00am 11.1 ESE 6 7 1026.0 - 0.0 - - - - - - -
20/02:30am 11.1 ESE 8 10 1026.3 - 0.0 - - - - - - -
20/02:00am 11.0 ESE 6 10 1026.4 - 0.0 - - - - - - -
20/01:30am 10.9 ESE 3 4 1026.6 - 0.0 - - - - - - -
20/01:00am 11.4 SE 11 15 1026.5 - 0.0 - - - - - - -
20/12:30am 11.7 SE 6 9 1026.6 - 0.0 - - - - - - -
20/12:00am 11.8 SE 6 9 1026.7 - 0.0 - - - - - - -
 
Date/Time
CST
Temp

°C
Wind Pressure Rain
since 9am
mm
Weather Cloud Vis
km
Sea
Height
m
Swell
Dir
 
Speed
knots
Gust
knots
hPa Trend Height
m
Period
s
Dir
19/11:30pm 11.8 ESE 8 10 1026.8 - 0.0 - - - - - - -
19/11:00pm 11.2 ESE 4 7 1026.8 - 0.0 - - - - - - -
19/10:30pm 10.6 SSE 4 5 1027.0 - 0.0 - - - - - - -
19/10:00pm 11.7 SSE 9 11 1027.1 - 0.0 - - - - - - -
19/09:30pm 11.8 SE 7 9 1027.1 - 0.0 - - - - - - -
19/09:00pm 11.8 ESE 8 10 1027.2 - 0.0 - - - - - - -
19/08:30pm 11.7 ESE 6 9 1027.2 - 0.0 - - - - - - -
19/08:00pm 12.0 SE 8 11 1027.0 - 0.0 - - - - - - -
19/07:30pm 11.9 SE 7 10 1027.0 - 0.0 - - - - - - -
19/07:00pm 11.5 SSE 4 5 1026.8 - 0.0 - - - - - - -
19/06:30pm 11.5 SSE 4 6 1026.6 - 0.0 - - - - - - -
19/06:00pm 11.3 SSE 2 3 1026.3 - 0.0 - - - - - - -
19/05:30pm 11.6 SSE 3 4 1026.1 - 0.0 - - - - - - -
19/05:00pm 11.9 SSE 3 5 1025.9 - 0.0 - - - - - - -
19/04:30pm 12.2 SSE 3 5 1025.7 - 0.0 - - - - - - -
19/04:00pm 12.5 NNE 2 4 1025.7 - 0.0 - - - - - - -
19/03:30pm 12.5 NE 4 5 1025.6 - 0.0 - - - - - - -
19/03:00pm 12.4 ENE 4 5 1025.6 - 0.0 - - - - - - -
19/02:30pm 12.6 NE 5 7 1025.7 - 0.0 - - - - - - -
19/02:00pm 13.3 ENE 7 9 1025.5 - 0.0 - - - - - - -
19/01:30pm 12.8 ENE 5 7 1025.7 - 0.0 - - - - - - -
19/01:00pm 13.5 E 3 5 1025.9 - 0.0 - - - - - - -
19/12:30pm 13.6 NNE 6 8 1026.3 - 0.0 - - - - - - -
19/12:00pm 13.1 NE 6 8 1026.7 - 0.0 - - - - - - -
19/11:30am 12.9 NE 6 8 1027.0 - 0.0 - - - - - - -
19/11:00am 13.1 ENE 7 11 1027.2 - 0.0 - - - - - - -
19/10:30am 12.6 E 8 10 1027.2 - 0.0 - - - - - - -
19/10:00am 12.4 E 7 10 1027.1 - 0.0 - - - - - - -
19/09:30am 12.1 ENE 7 9 1027.1 - 0.0 - - - - - - -
19/09:00am 11.9 ENE 8 9 1026.8 - 0.0 - - - - - - -
19/08:30am 12.2 SSE 4 6 1026.5 - 0.0 - - - - - - -
19/08:00am 11.8 SSE 7 9 1026.4 - 0.0 - - - - - - -
19/07:30am 11.4 S 7 10 1026.2 - 0.0 - - - - - - -
19/07:00am 11.4 S 7 10 1026.0 - 0.0 - - - - - - -
19/06:30am 11.4 SSE 6 10 1025.7 - 0.0 - - - - - - -
19/06:00am 10.9 SE 3 5 1025.5 - 0.0 - - - - - - -
19/05:30am 11.3 SE 5 7 1025.4 - 0.0 - - - - - - -
19/05:00am 11.5 SE 7 9 1025.3 - 0.0 - - - - - - -
19/04:30am 11.3 SE 4 5 1025.2 - 0.0 - - - - - - -
19/04:00am 11.4 ESE 5 6 1025.0 - 0.0 - - - - - - -
19/03:30am 11.0 ESE 4 5 1025.0 - 0.0 - - - - - - -
19/03:00am 11.4 S 6 8 1025.1 - 0.0 - - - - - - -
19/02:30am 11.4 S 5 9 1025.4 - 0.0 - - - - - - -
19/02:00am 11.0 SSE 5 8 1025.5 - 0.0 - - - - - - -
19/01:30am 10.5 SE 4 5 1025.7 - 0.0 - - - - - - -
19/01:00am 9.9 ESE 3 4 1025.8 - 0.0 - - - - - - -
19/12:30am 10.5 ESE 3 5 1025.8 - 0.0 - - - - - - -
19/12:00am 11.0 ESE 4 6 1025.9 - 0.0 - - - - - - -
 
Date/Time
CST
Temp

°C
Wind Pressure Rain
since 9am
mm
Weather Cloud Vis
km
Sea
Height
m
Swell
Dir
 
Speed
knots
Gust
knots
hPa Trend Height
m
Period
s
Dir
18/11:30pm 11.6 SE 6 7 1026.1 - 0.0 - - - - - - -
18/11:00pm 11.7 SE 5 7 1026.2 - 0.0 - - - - - - -
18/10:30pm 11.3 ESE 6 8 1026.2 - 0.0 - - - - - - -
18/10:00pm 11.5 ESE 6 8 1026.0 - 0.0 - - - - - - -
18/09:30pm 11.7 SE 7 9 1026.0 - 0.0 - - - - - - -
18/09:00pm 12.0 SE 8 10 1025.9 - 0.0 - - - - - - -
18/08:30pm 12.2 SSE 8 10 1025.7 - 0.0 - - - - - - -
18/08:00pm 12.1 SSE 7 10 1025.4 - 0.0 - - - - - - -
18/07:30pm 11.6 S 6 9 1025.2 - 0.0 - - - - - - -
18/07:00pm 11.8 SSE 7 8 1025.0 - 0.0 - - - - - - -
18/06:30pm 12.0 S 7 10 1024.7 - 0.0 - - - - - - -
18/06:00pm 12.2 S 5 7 1024.5 - 0.0 - - - - - - -
18/05:30pm 12.4 S 5 7 1024.1 - 0.0 - - - - - - -
18/05:00pm 12.7 S 6 8 1023.8 - 0.0 - - - - - - -
18/04:30pm 12.9 SSE 7 10 1023.5 - 0.0 - - - - - - -
18/04:00pm 13.4 SSE 7 9 1023.5 - 0.0 - - - - - - -
18/03:30pm 13.2 S 7 9 1023.4 - 0.0 - - - - - - -
18/03:00pm 13.4 S 4 7 1023.4 - 0.0 - - - - - - -
18/02:30pm 13.8 SSW 6 8 1023.5 - 0.0 - - - - - - -
18/02:00pm 13.9 SSW 6 9 1023.5 - 0.0 - - - - - - -
18/01:30pm 14.5 SSW 5 8 1023.6 - 0.0 - - - - - - -
18/01:00pm 13.8 SW 5 8 1023.8 - 0.0 - - - - - - -
18/12:30pm 12.9 SSW 6 8 1024.4 - 0.0 - - - - - - -
18/12:00pm 12.7 SSW 3 5 1024.8 - 0.0 - - - - - - -
18/11:30am 13.0 SSW 7 9 1025.2 - 0.0 - - - - - - -
18/11:00am 13.7 SW 7 10 1025.3 - 0.0 - - - - - - -
18/10:30am 13.3 SW 7 9 1025.4 - 0.0 - - - - - - -
18/10:00am 13.1 SSW 7 12 1025.5 - 0.0 - - - - - - -
18/09:30am 12.8 SW 6 8 1025.3 - 0.0 - - - - - - -
18/09:00am 12.1 SW 7 8 1025.2 - 1.0 - - - - - - -
18/08:30am 12.1 SSW 8 11 1025.1 - 1.0 - - - - - - -
18/08:00am 10.9 S 5 9 1025.0 - 1.0 - - - - - - -
18/07:30am 10.7 SSW 4 5 1024.7 - 0.4 - - - - - - -
18/07:00am 11.0 S 7 12 1024.5 - 0.4 - - - - - - -
18/06:30am 10.7 SSW 5 7 1024.2 - 0.4 - - - - - - -
18/06:00am 9.5 SSW 4 5 1023.9 - 0.4 - - - - - - -
18/05:30am 10.1 S 5 6 1023.6 - 0.4 - - - - - - -
18/05:00am 10.6 SSW 5 7 1023.6 - 0.4 - - - - - - -
18/04:30am 10.8 SSW 8 10 1023.5 - 0.2 - - - - - - -
18/04:00am 10.6 SW 6 8 1023.5 - 0.2 - - - - - - -
18/03:30am 10.8 WSW 6 9 1023.4 - 0.2 - - - - - - -
18/03:00am 10.9 SW 6 9 1023.5 - 0.2 - - - - - - -
18/02:30am 11.0 SW 5 8 1023.8 - 0.2 - - - - - - -
18/02:00am 11.2 SW 7 11 1024.0 - 0.2 - - - - - - -
18/01:30am 11.7 SSW 8 10 1024.1 - 0.2 - - - - - - -
18/01:00am 11.3 SW 5 7 1024.2 - 0.2 - - - - - - -
18/12:30am 11.1 SW 7 10 1024.3 - 0.2 - - - - - - -
18/12:00am 11.4 SW 6 9 1024.2 - 0.2 - - - - - - -
 
Date/Time
CST
Temp

°C
Wind Pressure Rain
since 9am
mm
Weather Cloud Vis
km
Sea
Height
m
Swell
Dir
 
Speed
knots
Gust
knots
hPa Trend Height
m
Period
s
Dir
17/11:30pm 10.6 SW 7 9 1024.3 - 0.2 - - - - - - -
17/11:00pm 10.8 SW 8 10 1024.2 - 0.2 - - - - - - -
17/10:30pm 10.7 SSW 7 9 1024.1 - 0.2 - - - - - - -
17/10:00pm 11.0 SSW 8 10 1024.1 - 0.2 - - - - - - -
17/09:30pm 11.0 SSW 7 10 1024.0 - 0.2 - - - - - - -
17/09:00pm 11.4 S 7 9 1023.9 - 0.2 - - - - - - -
17/08:30pm 12.0 S 9 12 1023.8 - 0.2 - - - - - - -

Other Formats:

Comma delimited format used in spreadsheet applications
http://www.bom.gov.au/fwo/IDS60701/IDS60701.94809.axf

JavaScript Object Notation format (JSON) in row-major order
http://www.bom.gov.au/fwo/IDS60701/IDS60701.94809.json